createdAt,value
2018-11-28T00:00:17.196Z,1015.59
2018-11-28T00:01:17.182Z,1015.57
2018-11-28T00:02:17.167Z,1015.55
2018-11-28T00:03:17.192Z,1015.56
2018-11-28T00:04:17.170Z,1015.52
2018-11-28T00:05:17.161Z,1015.47
2018-11-28T00:06:17.143Z,1015.45
2018-11-28T00:07:17.159Z,1015.47
2018-11-28T00:08:17.334Z,1015.47
2018-11-28T00:09:17.395Z,1015.53
2018-11-28T00:10:17.328Z,1015.51
2018-11-28T00:11:17.124Z,1015.51
2018-11-28T00:12:17.120Z,1015.55
2018-11-28T00:13:17.133Z,1015.52
2018-11-28T00:14:17.097Z,1015.51
2018-11-28T00:15:17.094Z,1015.51
2018-11-28T00:16:17.085Z,1015.53
2018-11-28T00:17:17.079Z,1015.49
2018-11-28T00:18:17.091Z,1015.53
2018-11-28T00:19:17.082Z,1015.52
2018-11-28T00:20:17.067Z,1015.56
2018-11-28T00:21:17.086Z,1015.47
2018-11-28T00:22:17.051Z,1015.47
2018-11-28T00:23:17.065Z,1015.44
2018-11-28T00:24:17.044Z,1015.46
2018-11-28T00:25:17.237Z,1015.41
2018-11-28T00:26:17.029Z,1015.45
2018-11-28T00:27:17.036Z,1015.43
2018-11-28T00:28:17.229Z,1015.40
2018-11-28T00:29:17.015Z,1015.34
2018-11-28T00:30:18.080Z,1015.36
2018-11-28T00:31:17.073Z,1015.39
2018-11-28T00:32:17.010Z,1015.29
2018-11-28T00:33:17.004Z,1015.32
2018-11-28T00:34:16.994Z,1015.36
2018-11-28T00:35:16.989Z,1015.34
2018-11-28T00:36:16.987Z,1015.30
2018-11-28T00:37:16.981Z,1015.33
2018-11-28T00:38:16.971Z,1015.32
2018-11-28T00:39:17.161Z,1015.33
2018-11-28T00:40:16.951Z,1015.29
2018-11-28T00:41:16.947Z,1015.30
2018-11-28T00:42:16.949Z,1015.26
2018-11-28T00:43:17.147Z,1015.25
2018-11-28T00:44:16.938Z,1015.22
2018-11-28T00:45:16.929Z,1015.27
2018-11-28T00:46:16.918Z,1015.25
2018-11-28T00:47:16.911Z,1015.19
2018-11-28T00:48:16.906Z,1015.18
2018-11-28T00:49:17.102Z,1015.20
2018-11-28T00:50:16.919Z,1015.15
2018-11-28T00:51:16.888Z,1015.15
2018-11-28T00:52:16.881Z,1015.17
2018-11-28T00:53:17.081Z,1015.14
2018-11-28T00:54:17.072Z,1015.15
2018-11-28T00:55:16.878Z,1015.13
2018-11-28T00:56:16.858Z,1015.11
2018-11-28T00:57:16.865Z,1015.16
2018-11-28T00:58:16.851Z,1015.20
2018-11-28T00:59:16.852Z,1015.13
2018-11-28T01:00:16.838Z,1015.12
2018-11-28T01:01:16.846Z,1015.14
2018-11-28T01:02:17.027Z,1015.11
2018-11-28T01:03:16.871Z,1015.08
2018-11-28T01:04:16.829Z,1015.09
2018-11-28T01:05:16.814Z,1015.05
2018-11-28T01:06:16.816Z,1015.09
2018-11-28T01:07:16.798Z,1015.08
2018-11-28T01:08:16.794Z,1015.09
2018-11-28T01:09:16.784Z,1015.08
2018-11-28T01:10:16.782Z,1015.08
2018-11-28T01:11:16.773Z,1015.09
2018-11-28T01:12:16.768Z,1015.03
2018-11-28T01:13:16.772Z,1015.06
2018-11-28T01:14:16.762Z,1015.06
2018-11-28T01:15:16.958Z,1015.06
2018-11-28T01:16:16.769Z,1015.06
2018-11-28T01:17:16.741Z,1015.13
2018-11-28T01:18:16.746Z,1015.06
2018-11-28T01:19:16.742Z,1015.03
2018-11-28T01:20:16.728Z,1014.97
2018-11-28T01:21:16.719Z,1015.02
2018-11-28T01:22:16.731Z,1014.99
2018-11-28T01:23:16.718Z,1014.94
2018-11-28T01:24:16.702Z,1015.00
2018-11-28T01:25:16.914Z,1015.06
2018-11-28T01:26:16.702Z,1015.07
2018-11-28T01:27:16.684Z,1015.08
2018-11-28T01:28:16.885Z,1015.09
2018-11-28T01:29:16.687Z,1015.10
2018-11-28T01:30:16.669Z,1015.13
2018-11-28T01:31:16.674Z,1015.17
2018-11-28T01:32:16.667Z,1015.18
2018-11-28T01:33:16.650Z,1015.21
2018-11-28T01:34:16.672Z,1015.19
2018-11-28T01:35:16.643Z,1015.20
2018-11-28T01:36:16.651Z,1015.24
2018-11-28T01:37:16.843Z,1015.18
2018-11-28T01:38:16.629Z,1015.19
2018-11-28T01:39:16.633Z,1015.19
2018-11-28T01:40:16.626Z,1015.15
2018-11-28T01:41:16.625Z,1015.16
2018-11-28T01:42:16.618Z,1015.20
2018-11-28T01:43:16.608Z,1015.16
2018-11-28T01:44:16.627Z,1015.13
2018-11-28T01:45:16.596Z,1015.15
2018-11-28T01:46:16.781Z,1015.14
2018-11-28T01:47:16.573Z,1015.12
2018-11-28T01:48:16.566Z,1015.12
2018-11-28T01:49:16.781Z,1015.09
2018-11-28T01:50:16.556Z,1015.10
2018-11-28T01:51:16.552Z,1015.16
2018-11-28T01:52:16.545Z,1015.15
2018-11-28T01:53:16.542Z,1015.14
2018-11-28T01:54:16.535Z,1015.15
2018-11-28T01:55:16.539Z,1015.15
2018-11-28T01:56:16.524Z,1015.19
2018-11-28T01:57:16.520Z,1015.17
2018-11-28T01:58:16.715Z,1015.16
2018-11-28T01:59:16.717Z,1015.16
2018-11-28T02:00:16.710Z,1015.17
2018-11-28T02:01:16.494Z,1015.23
2018-11-28T02:02:16.702Z,1015.21
2018-11-28T02:03:16.481Z,1015.25
2018-11-28T02:04:16.478Z,1015.21
2018-11-28T02:05:16.473Z,1015.20
2018-11-28T02:06:16.467Z,1015.19
2018-11-28T02:07:16.665Z,1015.20
2018-11-28T02:08:16.459Z,1015.17
2018-11-28T02:09:16.459Z,1015.16
2018-11-28T02:10:16.456Z,1015.16
2018-11-28T02:11:16.440Z,1015.17
2018-11-28T02:12:16.445Z,1015.18
2018-11-28T02:13:16.429Z,1015.15
2018-11-28T02:14:16.627Z,1015.12
2018-11-28T02:15:16.415Z,1015.12
2018-11-28T02:16:16.412Z,1015.15
2018-11-28T02:17:16.413Z,1015.13
2018-11-28T02:18:16.402Z,1015.11
2018-11-28T02:19:16.413Z,1015.15
2018-11-28T02:20:16.402Z,1015.14
2018-11-28T02:21:16.585Z,1015.15
2018-11-28T02:22:16.385Z,1015.14
2018-11-28T02:23:16.373Z,1015.12
2018-11-28T02:24:16.376Z,1015.14
2018-11-28T02:25:16.360Z,1015.13
2018-11-28T02:26:16.556Z,1015.13
2018-11-28T02:27:16.360Z,1015.15
2018-11-28T02:28:16.353Z,1015.13
2018-11-28T02:29:16.349Z,1015.09
2018-11-28T02:30:16.354Z,1015.13
2018-11-28T02:31:16.324Z,1015.15
2018-11-28T02:32:16.335Z,1015.16
2018-11-28T02:33:16.520Z,1015.13
2018-11-28T02:34:16.524Z,1015.11
2018-11-28T02:35:16.519Z,1015.07
2018-11-28T02:36:16.311Z,1015.06
2018-11-28T02:37:16.302Z,1015.04
2018-11-28T02:38:16.298Z,1015.04
2018-11-28T02:39:16.280Z,1015.01
2018-11-28T02:40:16.480Z,1015.01
2018-11-28T02:41:16.271Z,1014.97
2018-11-28T02:42:16.275Z,1014.96
2018-11-28T02:43:16.261Z,1014.88
2018-11-28T02:44:16.260Z,1014.91
2018-11-28T02:45:16.247Z,1014.92
2018-11-28T02:46:16.243Z,1014.90
2018-11-28T02:47:16.235Z,1014.90
2018-11-28T02:48:16.230Z,1014.94
2018-11-28T02:49:16.228Z,1014.95
2018-11-28T02:50:16.231Z,1014.95
2018-11-28T02:51:16.231Z,1014.95
2018-11-28T02:52:16.430Z,1014.93
2018-11-28T02:53:16.214Z,1014.93
2018-11-28T02:54:16.197Z,1014.96
2018-11-28T02:55:16.215Z,1014.90
2018-11-28T02:56:16.187Z,1014.95
2018-11-28T02:57:16.182Z,1014.95
2018-11-28T02:58:16.379Z,1014.95
2018-11-28T02:59:16.370Z,1014.94
2018-11-28T03:00:16.167Z,1014.94
2018-11-28T03:01:16.157Z,1014.87
2018-11-28T03:02:16.165Z,1014.89
2018-11-28T03:03:16.351Z,1014.83
2018-11-28T03:04:16.151Z,1014.81
2018-11-28T03:05:16.137Z,1014.81
2018-11-28T03:06:16.140Z,1014.81
2018-11-28T03:07:16.124Z,1014.77
2018-11-28T03:08:16.121Z,1014.78
2018-11-28T03:09:16.111Z,1014.76
2018-11-28T03:10:16.106Z,1014.79
2018-11-28T03:11:16.110Z,1014.73
2018-11-28T03:12:16.095Z,1014.73
2018-11-28T03:13:16.090Z,1014.72
2018-11-28T03:14:16.084Z,1014.78
2018-11-28T03:15:16.078Z,1014.80
2018-11-28T03:16:16.073Z,1014.76
2018-11-28T03:17:16.080Z,1014.76
2018-11-28T03:18:16.062Z,1014.79
2018-11-28T03:19:16.258Z,1014.80
2018-11-28T03:20:16.053Z,1014.83
2018-11-28T03:21:16.042Z,1014.82
2018-11-28T03:22:16.051Z,1014.89
2018-11-28T03:23:16.046Z,1014.82
2018-11-28T03:24:16.029Z,1014.85
2018-11-28T03:25:16.062Z,1014.89
2018-11-28T03:26:16.031Z,1014.89
2018-11-28T03:27:16.020Z,1014.89
2018-11-28T03:28:16.006Z,1014.89
2018-11-28T03:29:16.009Z,1014.88
2018-11-28T03:30:16.021Z,1014.90
2018-11-28T03:31:16.211Z,1014.89
2018-11-28T03:32:15.990Z,1014.90
2018-11-28T03:33:15.982Z,1014.85
2018-11-28T03:34:15.979Z,1014.84
2018-11-28T03:35:15.978Z,1014.85
2018-11-28T03:36:15.962Z,1014.87
2018-11-28T03:37:15.965Z,1014.86
2018-11-28T03:38:15.949Z,1014.84
2018-11-28T03:39:15.941Z,1014.89
2018-11-28T03:40:15.952Z,1014.91
2018-11-28T03:41:15.931Z,1014.85
2018-11-28T03:42:15.926Z,1014.87
2018-11-28T03:43:15.921Z,1014.83
2018-11-28T03:44:15.924Z,1014.81
2018-11-28T03:45:15.911Z,1014.82
2018-11-28T03:46:15.917Z,1014.81
2018-11-28T03:47:15.913Z,1014.78
2018-11-28T03:48:15.895Z,1014.77
2018-11-28T03:49:15.890Z,1014.75
2018-11-28T03:50:15.881Z,1014.72
2018-11-28T03:51:15.874Z,1014.71
2018-11-28T03:52:15.879Z,1014.69
2018-11-28T03:53:16.073Z,1014.70
2018-11-28T03:54:15.862Z,1014.71
2018-11-28T03:55:15.880Z,1014.73
2018-11-28T03:56:15.851Z,1014.69
2018-11-28T03:57:15.858Z,1014.69
2018-11-28T03:58:16.042Z,1014.76
2018-11-28T03:59:15.833Z,1014.71
2018-11-28T04:00:15.843Z,1014.67
2018-11-28T04:01:16.039Z,1014.63
2018-11-28T04:02:15.829Z,1014.68
2018-11-28T04:03:16.024Z,1014.70
2018-11-28T04:04:15.807Z,1014.69
2018-11-28T04:05:15.804Z,1014.69
2018-11-28T04:06:15.806Z,1014.69
2018-11-28T04:07:15.795Z,1014.68
2018-11-28T04:08:15.794Z,1014.70
2018-11-28T04:09:15.777Z,1014.68
2018-11-28T04:10:15.788Z,1014.68
2018-11-28T04:11:15.783Z,1014.67
2018-11-28T04:12:15.765Z,1014.69
2018-11-28T04:13:15.768Z,1014.66
2018-11-28T04:14:15.752Z,1014.67
2018-11-28T04:15:15.764Z,1014.65
2018-11-28T04:16:15.747Z,1014.64
2018-11-28T04:17:15.737Z,1014.66
2018-11-28T04:18:15.728Z,1014.66
2018-11-28T04:19:15.733Z,1014.69
2018-11-28T04:20:15.717Z,1014.71
2018-11-28T04:21:15.722Z,1014.70
2018-11-28T04:22:15.719Z,1014.67
2018-11-28T04:23:15.719Z,1014.71
2018-11-28T04:24:15.700Z,1014.70
2018-11-28T04:25:15.690Z,1014.70
2018-11-28T04:26:15.684Z,1014.67
2018-11-28T04:27:15.676Z,1014.75
2018-11-28T04:28:15.683Z,1014.78
2018-11-28T04:29:15.675Z,1014.80
2018-11-28T04:30:15.661Z,1014.80
2018-11-28T04:31:15.655Z,1014.83
2018-11-28T04:32:15.660Z,1014.87
2018-11-28T04:33:15.658Z,1014.77
2018-11-28T04:34:15.654Z,1014.81
2018-11-28T04:35:15.655Z,1014.82
2018-11-28T04:36:15.653Z,1014.80
2018-11-28T04:37:15.644Z,1014.83
2018-11-28T04:38:15.633Z,1014.79
2018-11-28T04:39:15.624Z,1014.77
2018-11-28T04:40:15.616Z,1014.80
2018-11-28T04:41:15.603Z,1014.80
2018-11-28T04:42:15.594Z,1014.87
2018-11-28T04:43:15.588Z,1014.82
2018-11-28T04:44:15.607Z,1014.83
2018-11-28T04:45:15.590Z,1014.82
2018-11-28T04:46:15.597Z,1014.81
2018-11-28T04:47:15.571Z,1014.76
2018-11-28T04:48:15.614Z,1014.76
2018-11-28T04:49:15.560Z,1014.79
2018-11-28T04:50:15.558Z,1014.80
2018-11-28T04:51:15.544Z,1014.83
2018-11-28T04:52:15.534Z,1014.88
2018-11-28T04:53:15.542Z,1014.81
2018-11-28T04:54:15.542Z,1014.81
2018-11-28T04:55:15.532Z,1014.84
2018-11-28T04:56:15.528Z,1014.78
2018-11-28T04:57:15.521Z,1014.81
2018-11-28T04:58:15.714Z,1014.78
2018-11-28T04:59:15.509Z,1014.80
2018-11-28T05:00:15.537Z,1014.75
2018-11-28T05:01:15.485Z,1014.75
2018-11-28T05:02:15.485Z,1014.78
2018-11-28T05:03:15.502Z,1014.79
2018-11-28T05:04:15.480Z,1014.77
2018-11-28T05:05:15.465Z,1014.77
2018-11-28T05:06:15.463Z,1014.80
2018-11-28T05:07:15.494Z,1014.79
2018-11-28T05:08:15.469Z,1014.79
2018-11-28T05:09:15.447Z,1014.77
2018-11-28T05:10:15.442Z,1014.78
2018-11-28T05:11:15.434Z,1014.75
2018-11-28T05:12:15.428Z,1014.73
2018-11-28T05:13:15.420Z,1014.75
2018-11-28T05:14:15.414Z,1014.78
2018-11-28T05:15:15.410Z,1014.74
2018-11-28T05:16:15.401Z,1014.76
2018-11-28T05:17:15.403Z,1014.62
2018-11-28T05:18:15.391Z,1014.65
2018-11-28T05:19:15.382Z,1014.62
2018-11-28T05:20:15.381Z,1014.72
2018-11-28T05:21:15.376Z,1014.73
2018-11-28T05:22:15.369Z,1014.75
2018-11-28T05:23:15.361Z,1014.72
2018-11-28T05:24:15.362Z,1014.77
2018-11-28T05:25:15.555Z,1014.75
2018-11-28T05:26:15.360Z,1014.72
2018-11-28T05:27:15.338Z,1014.78
2018-11-28T05:28:15.337Z,1014.79
2018-11-28T05:29:15.332Z,1014.75
2018-11-28T05:30:15.333Z,1014.77
2018-11-28T05:31:15.319Z,1014.75
2018-11-28T05:32:15.316Z,1014.79
2018-11-28T05:33:15.311Z,1014.78
2018-11-28T05:34:15.314Z,1014.75
2018-11-28T05:35:15.306Z,1014.78
2018-11-28T05:36:15.290Z,1014.72
2018-11-28T05:37:15.296Z,1014.77
2018-11-28T05:38:15.280Z,1014.76
2018-11-28T05:39:15.272Z,1014.74
2018-11-28T05:40:15.267Z,1014.75
2018-11-28T05:41:15.263Z,1014.76
2018-11-28T05:42:15.256Z,1014.72
2018-11-28T05:43:15.261Z,1014.69
2018-11-28T05:44:15.249Z,1014.65
2018-11-28T05:45:15.246Z,1014.67
2018-11-28T05:46:15.232Z,1014.67
2018-11-28T05:47:15.237Z,1014.69
2018-11-28T05:48:15.275Z,1014.70
2018-11-28T05:49:48.637Z,1014.65
2018-11-28T05:50:15.215Z,1014.63
2018-11-28T05:51:15.205Z,1014.64
2018-11-28T05:52:15.200Z,1014.59
2018-11-28T05:53:15.196Z,1014.60
2018-11-28T05:54:15.199Z,1014.60
2018-11-28T05:55:15.185Z,1014.63
2018-11-28T05:56:15.180Z,1014.63
2018-11-28T05:57:15.174Z,1014.57
2018-11-28T05:58:15.165Z,1014.58
2018-11-28T05:59:15.163Z,1014.66
2018-11-28T06:00:15.154Z,1014.68
2018-11-28T06:02:59.110Z,1014.68
2018-11-28T06:03:58.881Z,1014.71
2018-11-28T06:04:58.879Z,1014.68
2018-11-28T06:05:58.872Z,1014.72
2018-11-28T06:06:58.872Z,1014.73
2018-11-28T06:07:58.861Z,1014.67
2018-11-28T06:08:58.850Z,1014.73
2018-11-28T06:09:58.844Z,1014.71
2018-11-28T06:10:58.838Z,1014.68
2018-11-28T06:11:58.834Z,1014.70
2018-11-28T06:12:58.827Z,1014.71
2018-11-28T06:13:58.830Z,1014.69
2018-11-28T06:14:58.817Z,1014.69
2018-11-28T06:15:58.836Z,1014.77
2018-11-28T06:16:58.806Z,1014.74
2018-11-28T06:17:58.800Z,1014.68
2018-11-28T06:18:58.806Z,1014.72
2018-11-28T06:19:58.864Z,1014.70
2018-11-28T06:20:58.789Z,1014.72
2018-11-28T06:21:58.780Z,1014.63
2018-11-28T06:22:58.772Z,1014.72
2018-11-28T06:23:58.971Z,1014.65
2018-11-28T06:24:58.772Z,1014.68
2018-11-28T06:25:58.765Z,1014.64
2018-11-28T06:26:58.751Z,1014.65
2018-11-28T06:27:58.742Z,1014.69
2018-11-28T06:28:58.739Z,1014.68
2018-11-28T06:29:58.939Z,1014.68
2018-11-28T06:30:58.727Z,1014.64
2018-11-28T06:31:58.732Z,1014.67
2018-11-28T06:32:58.716Z,1014.74
2018-11-28T06:33:58.712Z,1014.68
2018-11-28T06:34:58.715Z,1014.68
2018-11-28T06:35:58.714Z,1014.71
2018-11-28T06:36:58.697Z,1014.68
2018-11-28T06:37:58.706Z,1014.71
2018-11-28T06:38:58.699Z,1014.69
2018-11-28T06:39:58.681Z,1014.72
2018-11-28T06:40:58.674Z,1014.72
2018-11-28T06:41:58.666Z,1014.75
2018-11-28T06:42:58.676Z,1014.74
2018-11-28T06:43:58.684Z,1014.75
2018-11-28T06:44:58.661Z,1014.79
2018-11-28T06:45:58.658Z,1014.79
2018-11-28T06:46:58.840Z,1014.74
2018-11-28T06:47:58.647Z,1014.82
2018-11-28T06:48:58.645Z,1014.75
2018-11-28T06:49:58.637Z,1014.77
2018-11-28T06:50:58.619Z,1014.82
2018-11-28T06:51:58.632Z,1014.86
2018-11-28T06:52:58.607Z,1014.85
2018-11-28T06:53:58.801Z,1014.87
2018-11-28T06:54:58.596Z,1014.88
2018-11-28T06:55:58.590Z,1014.95
2018-11-28T06:56:58.586Z,1014.96
2018-11-28T06:57:58.581Z,1014.94
2018-11-28T06:58:58.578Z,1015.00
2018-11-28T06:59:58.569Z,1015.03
2018-11-28T07:00:58.580Z,1015.03
2018-11-28T07:01:58.571Z,1014.96
2018-11-28T07:02:58.577Z,1015.02
2018-11-28T07:03:58.572Z,1014.97
2018-11-28T07:04:58.542Z,1015.08
2018-11-28T07:05:58.534Z,1015.03
2018-11-28T07:06:58.535Z,1015.04
2018-11-28T07:07:58.522Z,1015.03
2018-11-28T07:08:58.542Z,1015.06
2018-11-28T07:09:58.528Z,1015.05
2018-11-28T07:10:58.534Z,1015.06
2018-11-28T07:11:58.500Z,1015.03
2018-11-28T07:12:58.497Z,1014.98
2018-11-28T07:13:58.511Z,1015.05
2018-11-28T07:14:58.485Z,1015.05
2018-11-28T07:15:58.495Z,1015.08
2018-11-28T07:16:58.476Z,1015.08
2018-11-28T07:17:58.503Z,1015.10
2018-11-28T07:18:58.476Z,1015.12
2018-11-28T07:19:58.463Z,1015.16
2018-11-28T07:20:58.667Z,1015.19
2018-11-28T07:21:58.469Z,1015.21
2018-11-28T07:22:58.462Z,1015.20
2018-11-28T07:23:58.437Z,1015.25
2018-11-28T07:24:58.433Z,1015.25
2018-11-28T07:25:58.428Z,1015.29
2018-11-28T07:26:58.420Z,1015.31
2018-11-28T07:27:58.430Z,1015.24
2018-11-28T07:28:58.434Z,1015.27
2018-11-28T07:29:58.416Z,1015.31
2018-11-28T07:30:58.409Z,1015.28
2018-11-28T07:31:58.429Z,1015.27
2018-11-28T07:32:58.423Z,1015.23
2018-11-28T07:33:58.382Z,1015.28
2018-11-28T07:34:58.393Z,1015.32
2018-11-28T07:35:58.377Z,1015.36
2018-11-28T07:36:58.387Z,1015.35
2018-11-28T07:37:58.369Z,1015.39
2018-11-28T07:38:58.370Z,1015.34
2018-11-28T07:39:58.363Z,1015.40
2018-11-28T07:40:58.359Z,1015.45
2018-11-28T07:41:58.355Z,1015.47
2018-11-28T07:42:58.341Z,1015.44
2018-11-28T07:43:58.550Z,1015.50
2018-11-28T07:44:58.322Z,1015.52
2018-11-28T07:45:58.518Z,1015.42
2018-11-28T07:46:58.514Z,1015.47
2018-11-28T07:47:58.308Z,1015.44
2018-11-28T07:48:58.301Z,1015.49
2018-11-28T07:49:58.297Z,1015.53
2018-11-28T07:50:58.294Z,1015.48
2018-11-28T07:51:58.499Z,1015.48
2018-11-28T07:52:58.289Z,1015.43
2018-11-28T07:53:58.295Z,1015.43
2018-11-28T07:54:58.272Z,1015.41
2018-11-28T07:55:58.265Z,1015.39
2018-11-28T07:56:58.257Z,1015.39
2018-11-28T07:57:58.278Z,1015.39
2018-11-28T07:58:58.260Z,1015.35
2018-11-28T07:59:58.241Z,1015.33
2018-11-28T08:00:58.238Z,1015.32
2018-11-28T08:01:58.251Z,1015.34
2018-11-28T08:02:58.244Z,1015.37
2018-11-28T08:03:58.220Z,1015.35
2018-11-28T08:04:58.227Z,1015.32
2018-11-28T08:05:58.212Z,1015.32
2018-11-28T08:06:58.215Z,1015.31
2018-11-28T08:07:58.199Z,1015.38
2018-11-28T08:08:58.206Z,1015.36
2018-11-28T08:09:58.191Z,1015.36
2018-11-28T08:10:58.187Z,1015.40
2018-11-28T08:11:58.177Z,1015.35
2018-11-28T08:12:58.184Z,1015.40
2018-11-28T08:13:58.170Z,1015.38
2018-11-28T08:14:58.166Z,1015.38
2018-11-28T08:15:58.158Z,1015.43
2018-11-28T08:16:58.168Z,1015.41
2018-11-28T08:17:58.158Z,1015.41
2018-11-28T08:18:58.153Z,1015.39
2018-11-28T08:19:58.142Z,1015.38
2018-11-28T08:20:58.134Z,1015.38
2018-11-28T08:21:58.125Z,1015.46
2018-11-28T08:22:58.121Z,1015.41
2018-11-28T08:23:58.115Z,1015.46
2018-11-28T08:24:58.113Z,1015.40
2018-11-28T08:25:58.121Z,1015.39
2018-11-28T08:26:58.101Z,1015.44
2018-11-28T08:27:58.239Z,1015.44
2018-11-28T08:28:58.106Z,1015.42
2018-11-28T08:29:58.086Z,1015.41
2018-11-28T08:30:58.077Z,1015.46
2018-11-28T08:31:58.072Z,1015.43
2018-11-28T08:32:58.085Z,1015.39
2018-11-28T08:33:58.086Z,1015.39
2018-11-28T08:34:58.082Z,1015.36
2018-11-28T08:35:58.055Z,1015.39
2018-11-28T08:36:58.047Z,1015.36
2018-11-28T08:37:58.056Z,1015.36
2018-11-28T08:38:58.036Z,1015.35
2018-11-28T08:39:58.031Z,1015.31
2018-11-28T08:40:58.032Z,1015.32
2018-11-28T08:41:58.036Z,1015.33
2018-11-28T08:42:58.034Z,1015.34
2018-11-28T08:43:58.024Z,1015.30
2018-11-28T08:44:58.006Z,1015.34
2018-11-28T08:45:58.035Z,1015.25
2018-11-28T08:46:58.006Z,1015.30
2018-11-28T08:47:58.016Z,1015.27
2018-11-28T08:48:57.988Z,1015.23
2018-11-28T08:49:58.008Z,1015.28
2018-11-28T08:50:57.986Z,1015.19
2018-11-28T08:51:57.972Z,1015.33
2018-11-28T08:52:57.998Z,1015.21
2018-11-28T08:53:58.164Z,1015.23
2018-11-28T08:54:57.955Z,1015.34
2018-11-28T08:55:57.989Z,1015.24
2018-11-28T08:56:57.947Z,1015.28
2018-11-28T08:57:57.952Z,1015.28
2018-11-28T08:58:57.933Z,1015.29
2018-11-28T08:59:57.959Z,1015.28
2018-11-28T09:00:57.927Z,1015.27
2018-11-28T09:01:57.932Z,1015.30
2018-11-28T09:02:57.942Z,1015.29
2018-11-28T09:03:57.919Z,1015.22
2018-11-28T09:04:57.926Z,1015.20
2018-11-28T09:05:57.923Z,1015.21
2018-11-28T09:06:57.896Z,1015.30
2018-11-28T09:07:57.889Z,1015.22
2018-11-28T09:08:57.894Z,1015.25
2018-11-28T09:09:57.882Z,1015.32
2018-11-28T09:10:57.875Z,1015.30
2018-11-28T09:11:57.873Z,1015.33
2018-11-28T09:13:03.539Z,1015.33
2018-11-28T09:13:57.860Z,1015.31
2018-11-28T09:14:57.860Z,1015.34
2018-11-28T09:15:57.850Z,1015.31
2018-11-28T09:16:57.846Z,1015.24
2018-11-28T09:17:57.839Z,1015.31
2018-11-28T09:18:57.844Z,1015.39
2018-11-28T09:19:58.030Z,1015.34
2018-11-28T09:20:57.826Z,1015.35
2018-11-28T09:21:57.831Z,1015.42
2018-11-28T09:22:58.024Z,1015.37
2018-11-28T09:23:57.809Z,1015.38
2018-11-28T09:24:57.814Z,1015.31
2018-11-28T09:25:57.821Z,1015.30
2018-11-28T09:26:57.814Z,1015.30
2018-11-28T09:27:57.801Z,1015.31
2018-11-28T09:28:57.785Z,1015.34
2018-11-28T09:29:57.775Z,1015.32
2018-11-28T09:30:57.774Z,1015.34
2018-11-28T09:31:57.782Z,1015.29
2018-11-28T09:32:57.790Z,1015.36
2018-11-28T09:33:57.766Z,1015.32
2018-11-28T09:34:57.768Z,1015.27
2018-11-28T09:35:57.747Z,1015.33
2018-11-28T09:36:57.740Z,1015.33
2018-11-28T09:37:57.943Z,1015.35
2018-11-28T09:38:57.741Z,1015.33
2018-11-28T09:39:57.726Z,1015.34
2018-11-28T09:40:57.731Z,1015.32
2018-11-28T09:41:57.737Z,1015.32
2018-11-28T09:42:57.711Z,1015.38
2018-11-28T09:43:57.716Z,1015.35
2018-11-28T09:44:57.712Z,1015.29
2018-11-28T09:45:57.694Z,1015.29
2018-11-28T09:46:57.701Z,1015.31
2018-11-28T09:47:57.685Z,1015.23
2018-11-28T09:48:57.688Z,1015.20
2018-11-28T09:49:57.674Z,1015.25
2018-11-28T09:50:57.671Z,1015.23
2018-11-28T09:51:57.869Z,1015.30
2018-11-28T09:52:57.669Z,1015.30
2018-11-28T09:53:57.655Z,1015.33
2018-11-28T09:54:57.653Z,1015.23
2018-11-28T09:55:57.668Z,1015.39
2018-11-28T09:56:57.669Z,1015.29
2018-11-28T09:57:57.650Z,1015.26
2018-11-28T09:58:57.630Z,1015.27
2018-11-28T09:59:57.637Z,1015.30
2018-11-28T10:00:57.633Z,1015.26
2018-11-28T10:01:57.630Z,1015.31
2018-11-28T10:02:57.613Z,1015.31
2018-11-28T10:03:57.608Z,1015.28
2018-11-28T10:05:02.574Z,1015.31
2018-11-28T10:05:57.597Z,1015.28
2018-11-28T10:06:57.593Z,1015.29
2018-11-28T10:07:57.588Z,1015.34
2018-11-28T10:08:57.582Z,1015.30
2018-11-28T10:09:57.579Z,1015.35
2018-11-28T10:10:57.571Z,1015.32
2018-11-28T10:11:57.565Z,1015.30
2018-11-28T10:12:57.589Z,1015.33
2018-11-28T10:13:57.570Z,1015.27
2018-11-28T10:14:57.555Z,1015.22
2018-11-28T10:15:57.562Z,1015.17
2018-11-28T10:16:57.919Z,1015.21
2018-11-28T10:17:57.538Z,1015.17
2018-11-28T10:18:57.553Z,1015.10
2018-11-28T10:19:57.547Z,1015.10
2018-11-28T10:20:57.522Z,1015.09
2018-11-28T10:21:57.732Z,1015.06
2018-11-28T10:22:57.513Z,1015.10
2018-11-28T10:23:57.514Z,1015.01
2018-11-28T10:24:57.501Z,1015.00
2018-11-28T10:25:57.500Z,1015.03
2018-11-28T10:26:57.505Z,1014.98
2018-11-28T10:27:57.703Z,1015.01
2018-11-28T10:28:57.485Z,1015.01
2018-11-28T10:29:57.682Z,1014.99
2018-11-28T10:30:57.473Z,1014.98
2018-11-28T10:31:57.480Z,1014.92
2018-11-28T10:32:57.498Z,1014.87
2018-11-28T10:33:57.461Z,1014.87
2018-11-28T10:34:57.469Z,1014.90
2018-11-28T10:35:57.452Z,1014.88
2018-11-28T10:36:57.489Z,1014.87
2018-11-28T10:37:57.451Z,1014.86
2018-11-28T10:38:57.441Z,1014.91
2018-11-28T10:39:57.445Z,1014.85
2018-11-28T10:40:57.439Z,1014.85
2018-11-28T10:41:57.431Z,1014.85
2018-11-28T10:42:57.439Z,1014.80
2018-11-28T10:43:57.423Z,1014.79
2018-11-28T10:44:57.419Z,1014.81
2018-11-28T10:45:57.418Z,1014.75
2018-11-28T10:46:57.401Z,1014.70
2018-11-28T10:47:57.419Z,1014.78
2018-11-28T10:48:57.388Z,1014.74
2018-11-28T10:49:57.383Z,1014.70
2018-11-28T10:50:57.395Z,1014.69
2018-11-28T10:51:57.376Z,1014.71
2018-11-28T10:52:57.382Z,1014.72
2018-11-28T10:53:57.419Z,1014.76
2018-11-28T10:54:57.361Z,1014.75
2018-11-28T10:55:57.367Z,1014.74
2018-11-28T10:56:57.370Z,1014.71
2018-11-28T10:57:57.363Z,1014.70
2018-11-28T10:58:57.340Z,1014.69
2018-11-28T10:59:57.340Z,1014.70
2018-11-28T11:00:57.381Z,1014.72
2018-11-28T11:01:57.339Z,1014.67
2018-11-28T11:02:57.320Z,1014.72
2018-11-28T11:03:57.328Z,1014.67
2018-11-28T11:04:57.334Z,1014.65
2018-11-28T11:05:57.319Z,1014.70
2018-11-28T11:06:57.312Z,1014.70
2018-11-28T11:07:57.308Z,1014.70
2018-11-28T11:08:57.329Z,1014.69
2018-11-28T11:09:57.287Z,1014.72
2018-11-28T11:10:57.310Z,1014.63
2018-11-28T11:11:57.279Z,1014.64
2018-11-28T11:12:57.292Z,1014.65
2018-11-28T11:13:57.270Z,1014.66
2018-11-28T11:14:57.278Z,1014.67
2018-11-28T11:15:57.279Z,1014.68
2018-11-28T11:16:57.256Z,1014.61
2018-11-28T11:18:02.134Z,1014.64
2018-11-28T11:18:57.245Z,1014.60
2018-11-28T11:19:57.241Z,1014.66
2018-11-28T11:20:57.239Z,1014.64
2018-11-28T11:21:57.235Z,1014.69
2018-11-28T11:22:57.227Z,1014.68
2018-11-28T11:23:57.238Z,1014.60
2018-11-28T11:24:57.232Z,1014.67
2018-11-28T11:25:57.219Z,1014.62
2018-11-28T11:26:57.221Z,1014.65
2018-11-28T11:27:57.215Z,1014.67
2018-11-28T11:28:57.216Z,1014.63
2018-11-28T11:29:57.223Z,1014.66
2018-11-28T11:30:57.205Z,1014.63
2018-11-28T11:31:57.201Z,1014.69
2018-11-28T11:32:57.183Z,1014.63
2018-11-28T11:33:57.212Z,1014.66
2018-11-28T11:34:57.171Z,1014.60
2018-11-28T11:35:57.171Z,1014.65
2018-11-28T11:36:57.176Z,1014.55
2018-11-28T11:37:57.158Z,1014.53
2018-11-28T11:38:57.168Z,1014.57
2018-11-28T11:39:57.372Z,1014.49
2018-11-28T11:40:57.159Z,1014.38
2018-11-28T11:41:57.154Z,1014.42
2018-11-28T11:42:57.134Z,1014.46
2018-11-28T11:43:57.141Z,1014.40
2018-11-28T11:44:57.139Z,1014.43
2018-11-28T11:45:57.120Z,1014.38
2018-11-28T11:46:57.140Z,1014.41
2018-11-28T11:47:57.112Z,1014.45
2018-11-28T11:48:57.117Z,1014.36
2018-11-28T11:49:57.128Z,1014.39
2018-11-28T11:50:57.114Z,1014.47
2018-11-28T11:51:57.104Z,1014.31
2018-11-28T11:52:57.098Z,1014.44
2018-11-28T11:53:57.095Z,1014.34
2018-11-28T11:54:57.078Z,1014.41
2018-11-28T11:55:57.094Z,1014.32
2018-11-28T11:56:57.082Z,1014.38
2018-11-28T11:57:57.281Z,1014.35
2018-11-28T11:58:57.265Z,1014.38
2018-11-28T11:59:57.056Z,1014.41
2018-11-28T12:00:57.063Z,1014.35
2018-11-28T12:01:57.059Z,1014.25
2018-11-28T12:02:57.052Z,1014.28
2018-11-28T12:03:57.099Z,1014.24
2018-11-28T12:04:57.046Z,1014.28
2018-11-28T12:05:57.030Z,1014.22
2018-11-28T12:06:57.039Z,1014.27